Time;durP1;ratioP1;P1;durP2;ratioP2;P2;SDS_P1;SDS_P2;PMS_P1;PMS_P2;Temp;Humidity;BMP_temperature;BMP_pressure;BME280_temperature;BME280_humidity;BME280_pressure;Samples;Min_cycle;Max_cycle;Signal;HPM_P1;HPM_P2
2022/07/07 00:01:57;;;;;;;4.00;2.65;;;;;;;;;;6244689;23;20342;-81
2022/07/07 00:04:23;;;;;;;7.93;2.70;;;;;;;;;;6244832;23;20379;-85
2022/07/07 00:06:49;;;;;;;3.17;2.30;;;;;;;;;;6244852;23;20008;-80
2022/07/07 00:09:15;;;;;;;3.55;2.70;;;;;;;;;;6244997;23;20004;-81
2022/07/07 00:11:41;;;;;;;3.38;2.83;;;;;;;;;;6246908;23;20012;-79
2022/07/07 00:14:08;;;;;;;3.15;2.60;;;;;;;;;;6248434;23;20004;-80
2022/07/07 00:16:35;;;;;;;3.72;2.60;;;;;;;;;;6246568;23;20004;-81
2022/07/07 00:19:01;;;;;;;4.03;2.70;;;;;;;;;;6246463;23;20004;-85
2022/07/07 00:21:29;;;;;;;2.97;2.60;;;;;;;;;;6246637;23;20076;-80
2022/07/07 00:23:55;;;;;;;6.35;2.65;;;;;;;;;;6246736;23;19997;-81
2022/07/07 00:26:21;;;;;;;3.38;2.60;;;;;;;;;;6246658;23;20047;-80
2022/07/07 00:28:48;;;;;;;4.38;2.80;;;;;;;;;;6246649;23;20004;-80
2022/07/07 00:31:14;;;;;;;5.03;2.60;;;;;;;;;;6246477;23;20322;-84
2022/07/07 00:33:41;;;;;;;3.05;2.38;;;;;;;;;;6246522;23;20010;-80
2022/07/07 00:36:07;;;;;;;2.95;2.42;;;;;;;;;;6246640;23;20056;-80
2022/07/07 00:38:34;;;;;;;8.38;3.00;;;;;;;;;;6246295;23;20004;-81
2022/07/07 00:41:00;;;;;;;3.17;2.65;;;;;;;;;;6246419;23;20095;-80
2022/07/07 00:43:26;;;;;;;4.30;2.42;;;;;;;;;;6246312;23;20430;-80
2022/07/07 00:45:53;;;;;;;2.85;2.40;;;;;;;;;;6246492;23;20087;-83
2022/07/07 00:48:19;;;;;;;3.42;2.60;;;;;;;;;;6247714;23;20012;-79
2022/07/07 00:50:47;;;;;;;4.63;3.00;;;;;;;;;;6247253;23;20436;-80
2022/07/07 00:53:14;;;;;;;3.80;2.92;;;;;;;;;;6246914;23;20079;-79
2022/07/07 00:55:40;;;;;;;3.10;2.80;;;;;;;;;;6246803;23;20008;-80
2022/07/07 00:58:06;;;;;;;3.60;2.22;;;;;;;;;;6245986;23;20036;-80
2022/07/07 01:08:54;;;;;;;3.67;2.67;;;;;;;;;;5090212;27;20423;-82
2022/07/07 01:11:20;;;;;;;3.45;3.15;;;;;;;;;;5090473;28;20078;-82
2022/07/07 01:13:46;;;;;;;4.88;3.05;;;;;;;;;;5089719;28;20035;-80
2022/07/07 01:16:12;;;;;;;4.30;2.78;;;;;;;;;;5090029;28;20048;-80
2022/07/07 01:18:38;;;;;;;3.70;3.00;;;;;;;;;;5090080;28;20052;-79
2022/07/07 01:21:05;;;;;;;4.78;3.30;;;;;;;;;;5089712;28;20504;-80
2022/07/07 01:23:31;;;;;;;3.40;3.00;;;;;;;;;;5091188;28;20074;-83
2022/07/07 01:25:58;;;;;;;3.53;3.15;;;;;;;;;;5090770;28;20031;-79
2022/07/07 01:28:24;;;;;;;3.70;2.92;;;;;;;;;;5090109;28;20036;-80
2022/07/07 01:30:50;;;;;;;4.45;3.33;;;;;;;;;;5091005;28;20028;-79
2022/07/07 01:33:17;;;;;;;5.13;2.90;;;;;;;;;;5089369;28;20062;-84
2022/07/07 01:35:43;;;;;;;3.78;2.70;;;;;;;;;;5090342;28;20486;-79
2022/07/07 01:38:09;;;;;;;5.00;2.72;;;;;;;;;;5089816;28;20036;-85
2022/07/07 01:40:35;;;;;;;4.50;2.60;;;;;;;;;;5090842;28;20028;-84
2022/07/07 01:43:01;;;;;;;3.13;2.83;;;;;;;;;;5089730;28;20028;-80
2022/07/07 01:45:27;;;;;;;3.67;2.50;;;;;;;;;;5089226;28;20415;-79
2022/07/07 01:47:53;;;;;;;5.25;2.60;;;;;;;;;;5090394;28;20473;-79
2022/07/07 01:50:20;;;;;;;2.97;2.40;;;;;;;;;;5089076;28;20024;-80
2022/07/07 01:52:46;;;;;;;3.53;2.65;;;;;;;;;;5088821;28;20025;-80
2022/07/07 01:55:13;;;;;;;4.20;2.58;;;;;;;;;;5089072;28;20029;-80
2022/07/07 01:57:39;;;;;;;3.35;2.42;;;;;;;;;;5089043;28;20040;-80
2022/07/07 02:00:05;;;;;;;2.95;2.40;;;;;;;;;;5088940;28;20020;-80
2022/07/07 02:02:32;;;;;;;3.70;2.53;;;;;;;;;;5088668;28;20435;-80
2022/07/07 02:04:58;;;;;;;3.00;2.30;;;;;;;;;;5088883;28;20025;-79
2022/07/07 02:07:25;;;;;;;3.00;2.53;;;;;;;;;;5082077;28;20041;-80
2022/07/07 02:09:51;;;;;;;3.05;2.45;;;;;;;;;;5050100;28;20104;-79
2022/07/07 02:12:18;;;;;;;3.28;2.65;;;;;;;;;;5049885;28;20021;-79
2022/07/07 02:14:44;;;;;;;3.55;2.30;;;;;;;;;;5050409;28;20033;-79
2022/07/07 02:17:10;;;;;;;3.05;2.53;;;;;;;;;;5082150;28;20033;-79
2022/07/07 02:19:36;;;;;;;2.80;2.38;;;;;;;;;;5071550;28;20048;-80
2022/07/07 02:22:02;;;;;;;3.10;2.20;;;;;;;;;;5037316;28;20109;-80
2022/07/07 02:24:29;;;;;;;4.07;2.47;;;;;;;;;;5068172;28;20462;-79
2022/07/07 02:26:55;;;;;;;3.92;2.53;;;;;;;;;;5037140;28;20496;-79
2022/07/07 02:29:21;;;;;;;3.65;2.50;;;;;;;;;;5037053;28;20033;-80
2022/07/07 02:31:47;;;;;;;4.20;2.53;;;;;;;;;;5068247;28;20029;-80
2022/07/07 02:34:13;;;;;;;2.67;2.47;;;;;;;;;;5068183;28;20100;-80
2022/07/07 02:36:40;;;;;;;3.45;2.60;;;;;;;;;;5036618;28;20022;-79
2022/07/07 02:39:06;;;;;;;3.00;2.47;;;;;;;;;;5068345;28;20029;-80
2022/07/07 02:41:32;;;;;;;3.38;2.50;;;;;;;;;;5067920;28;20022;-80
2022/07/07 02:43:58;;;;;;;6.95;3.30;;;;;;;;;;5068119;28;20025;-79
2022/07/07 02:46:24;;;;;;;4.07;2.50;;;;;;;;;;5067933;28;20548;-79
2022/07/07 02:48:50;;;;;;;4.00;2.20;;;;;;;;;;5068121;28;20038;-79
2022/07/07 02:51:16;;;;;;;3.55;2.63;;;;;;;;;;5037389;28;20087;-79
2022/07/07 02:53:43;;;;;;;3.75;2.70;;;;;;;;;;5067696;28;20083;-80
2022/07/07 02:56:09;;;;;;;4.03;2.80;;;;;;;;;;5068156;28;20123;-80
2022/07/07 02:58:35;;;;;;;4.43;2.55;;;;;;;;;;5067949;28;20036;-80
2022/07/07 03:01:01;;;;;;;4.68;2.72;;;;;;;;;;5067415;28;20083;-81
2022/07/07 03:03:27;;;;;;;3.33;2.30;;;;;;;;;;5067637;28;20478;-80
2022/07/07 03:05:54;;;;;;;2.83;2.50;;;;;;;;;;5035628;28;20425;-80
2022/07/07 03:08:20;;;;;;;3.80;2.92;;;;;;;;;;5067566;28;20060;-81
2022/07/07 03:10:46;;;;;;;4.25;2.83;;;;;;;;;;5076292;28;20422;-82
2022/07/07 03:13:12;;;;;;;5.57;2.80;;;;;;;;;;5074319;28;20029;-85
2022/07/07 03:15:38;;;;;;;3.67;3.10;;;;;;;;;;5074502;28;20098;-80
2022/07/07 03:18:04;;;;;;;3.60;2.80;;;;;;;;;;5073805;28;20037;-79
2022/07/07 03:20:31;;;;;;;4.35;2.83;;;;;;;;;;5075363;28;20020;-80
2022/07/07 03:22:57;;;;;;;4.15;2.97;;;;;;;;;;5073511;28;20047;-80
2022/07/07 03:25:23;;;;;;;3.92;2.67;;;;;;;;;;5073865;28;20431;-80
2022/07/07 03:27:49;;;;;;;4.25;3.15;;;;;;;;;;5074369;28;20051;-80
2022/07/07 03:30:15;;;;;;;4.25;2.85;;;;;;;;;;5073326;28;20021;-80
2022/07/07 03:32:41;;;;;;;4.90;3.47;;;;;;;;;;5074662;28;20032;-85
2022/07/07 03:35:08;;;;;;;4.07;2.60;;;;;;;;;;5073749;28;20021;-81
2022/07/07 03:37:34;;;;;;;3.47;2.53;;;;;;;;;;5073349;28;20036;-80
2022/07/07 03:40:01;;;;;;;3.85;2.70;;;;;;;;;;5074366;28;20111;-81
2022/07/07 03:42:27;;;;;;;2.83;2.53;;;;;;;;;;5073807;28;20070;-80
2022/07/07 03:44:53;;;;;;;2.88;2.47;;;;;;;;;;5073684;28;20419;-85
2022/07/07 03:47:19;;;;;;;4.35;2.97;;;;;;;;;;5073794;28;20025;-79
2022/07/07 03:49:45;;;;;;;5.10;2.85;;;;;;;;;;5073713;28;20488;-80
2022/07/07 03:52:11;;;;;;;3.35;2.53;;;;;;;;;;5073023;28;20024;-80
2022/07/07 03:54:38;;;;;;;3.65;2.30;;;;;;;;;;5073766;28;20481;-80
2022/07/07 03:57:04;;;;;;;3.65;2.30;;;;;;;;;;5072944;28;20112;-80
2022/07/07 03:59:30;;;;;;;3.67;2.30;;;;;;;;;;5074680;28;20029;-81
2022/07/07 04:01:56;;;;;;;4.18;2.40;;;;;;;;;;5075022;28;20104;-80
2022/07/07 04:04:22;;;;;;;2.30;2.03;;;;;;;;;;5073400;28;20028;-79
2022/07/07 04:06:48;;;;;;;3.40;2.40;;;;;;;;;;5072941;28;20036;-80
2022/07/07 04:09:14;;;;;;;5.35;2.35;;;;;;;;;;5073117;28;20060;-80
2022/07/07 04:11:40;;;;;;;4.50;2.50;;;;;;;;;;5072731;28;20389;-80
2022/07/07 04:14:07;;;;;;;4.03;2.50;;;;;;;;;;5072939;28;20025;-80
2022/07/07 04:16:33;;;;;;;5.85;2.42;;;;;;;;;;5074233;28;20032;-80
2022/07/07 04:18:59;;;;;;;4.35;2.70;;;;;;;;;;5074228;28;20020;-80
2022/07/07 04:21:25;;;;;;;3.28;1.95;;;;;;;;;;5073668;28;20028;-80
2022/07/07 04:23:51;;;;;;;3.92;2.10;;;;;;;;;;5075136;28;20029;-80
2022/07/07 04:26:18;;;;;;;4.93;2.10;;;;;;;;;;5072485;28;20024;-81
2022/07/07 04:28:44;;;;;;;4.47;2.20;;;;;;;;;;5072495;28;20023;-80
2022/07/07 04:31:10;;;;;;;2.63;2.00;;;;;;;;;;5072675;28;20025;-80
2022/07/07 04:33:36;;;;;;;4.90;1.90;;;;;;;;;;5072577;28;20028;-80
2022/07/07 04:36:02;;;;;;;3.55;2.17;;;;;;;;;;5073066;28;20074;-80
2022/07/07 04:38:29;;;;;;;4.45;2.35;;;;;;;;;;5074177;28;20512;-80
2022/07/07 04:40:55;;;;;;;3.92;2.35;;;;;;;;;;5072991;28;20067;-80
2022/07/07 04:43:21;;;;;;;3.60;1.95;;;;;;;;;;5072406;28;20047;-80
2022/07/07 04:45:47;;;;;;;3.67;2.10;;;;;;;;;;5072694;28;20115;-80
2022/07/07 04:48:13;;;;;;;4.25;1.90;;;;;;;;;;5072686;28;20021;-84
2022/07/07 04:50:39;;;;;;;2.97;1.50;;;;;;;;;;5072548;28;20021;-79
2022/07/07 04:53:05;;;;;;;4.50;1.63;;;;;;;;;;5072539;28;20028;-80
2022/07/07 04:55:32;;;;;;;3.50;1.80;;;;;;;;;;5072393;28;20480;-82
2022/07/07 04:57:58;;;;;;;3.08;1.80;;;;;;;;;;5072421;28;20370;-80
2022/07/07 05:00:24;;;;;;;4.88;2.00;;;;;;;;;;5072692;28;20116;-80
2022/07/07 05:02:50;;;;;;;3.00;1.70;;;;;;;;;;5072814;28;20028;-80
2022/07/07 05:05:16;;;;;;;3.60;1.67;;;;;;;;;;5072691;28;20061;-80
2022/07/07 05:07:43;;;;;;;3.58;1.40;;;;;;;;;;5071925;28;20086;-80
2022/07/07 05:10:09;;;;;;;9.93;1.73;;;;;;;;;;5074429;28;20070;-80
2022/07/07 05:12:35;;;;;;;2.75;1.40;;;;;;;;;;5073152;28;20027;-81
2022/07/07 05:15:01;;;;;;;3.25;1.80;;;;;;;;;;5071945;28;20012;-80
2022/07/07 05:17:27;;;;;;;3.40;1.50;;;;;;;;;;5072165;28;20025;-80
2022/07/07 05:19:54;;;;;;;5.00;1.70;;;;;;;;;;5071642;28;20501;-80
2022/07/07 05:22:20;;;;;;;1.98;1.50;;;;;;;;;;5072379;28;20036;-82
2022/07/07 05:24:46;;;;;;;2.53;1.40;;;;;;;;;;5072635;28;20056;-81
2022/07/07 05:27:12;;;;;;;3.05;1.60;;;;;;;;;;5072806;28;20115;-81
2022/07/07 05:29:38;;;;;;;3.33;1.95;;;;;;;;;;5072293;28;20036;-79
2022/07/07 05:32:05;;;;;;;5.38;1.70;;;;;;;;;;5074938;28;20029;-81
2022/07/07 05:34:31;;;;;;;3.47;1.70;;;;;;;;;;5075131;28;20388;-80
2022/07/07 05:36:57;;;;;;;3.00;1.70;;;;;;;;;;5081326;28;20024;-84
2022/07/07 05:39:24;;;;;;;3.60;1.75;;;;;;;;;;5072269;28;20029;-80
2022/07/07 05:41:50;;;;;;;4.13;1.67;;;;;;;;;;5072901;28;20016;-81
2022/07/07 05:44:16;;;;;;;2.58;1.55;;;;;;;;;;5054843;28;20029;-83
2022/07/07 05:46:42;;;;;;;2.30;1.55;;;;;;;;;;5054619;28;20173;-78
2022/07/07 05:49:08;;;;;;;6.50;1.92;;;;;;;;;;5055065;28;20461;-80
2022/07/07 05:51:35;;;;;;;6.68;2.38;;;;;;;;;;5055829;28;20032;-79
2022/07/07 05:54:01;;;;;;;4.15;2.08;;;;;;;;;;5056989;28;20035;-77
2022/07/07 05:56:27;;;;;;;4.93;1.77;;;;;;;;;;5059957;28;20049;-88
2022/07/07 05:58:53;;;;;;;5.82;1.85;;;;;;;;;;5059701;28;20043;-87
2022/07/07 06:01:20;;;;;;;5.00;1.60;;;;;;;;;;5059032;28;20020;-87
2022/07/07 06:03:46;;;;;;;3.78;1.50;;;;;;;;;;5059702;28;20074;-80
2022/07/07 06:06:13;;;;;;;3.38;1.45;;;;;;;;;;5059441;28;20032;-83
2022/07/07 06:08:39;;;;;;;3.65;1.80;;;;;;;;;;5077173;28;20127;-81
2022/07/07 06:11:05;;;;;;;4.28;1.63;;;;;;;;;;5076005;28;20051;-86
2022/07/07 06:13:34;;;;;;;3.00;1.38;;;;;;;;;;5057786;28;20021;-80
2022/07/07 06:16:00;;;;;;;2.50;1.45;;;;;;;;;;5057896;28;20078;-79
2022/07/07 06:21:33;;;;;;;4.40;1.38;;;;;;;;;;5066295;28;20081;-81
2022/07/07 06:24:09;;;;;;;2.63;1.30;;;;;;;;;;5047816;28;20058;-82
2022/07/07 06:32:11;;;;;;;2.95;1.40;;;;;;;;;;5025305;28;20036;-78
2022/07/07 06:34:37;;;;;;;2.35;1.23;;;;;;;;;;5058577;28;20428;-85
2022/07/07 06:37:03;;;;;;;1.98;1.27;;;;;;;;;;5058559;28;20024;-81
2022/07/07 06:39:29;;;;;;;3.13;1.40;;;;;;;;;;5075830;28;20048;-82
2022/07/07 06:41:56;;;;;;;3.40;1.52;;;;;;;;;;5058374;28;20017;-75
2022/07/07 06:44:22;;;;;;;2.85;1.30;;;;;;;;;;5075861;28;20035;-78
2022/07/07 06:46:48;;;;;;;2.58;1.40;;;;;;;;;;5058349;28;20074;-83
2022/07/07 06:49:14;;;;;;;2.65;1.10;;;;;;;;;;5058596;28;20116;-80
2022/07/07 06:51:40;;;;;;;2.38;1.40;;;;;;;;;;5057869;28;20111;-79
2022/07/07 06:54:06;;;;;;;2.10;1.30;;;;;;;;;;5058187;28;20040;-76
2022/07/07 06:56:33;;;;;;;2.65;1.20;;;;;;;;;;5057899;28;20021;-78
2022/07/07 06:58:59;;;;;;;5.40;1.13;;;;;;;;;;5058120;28;20119;-78
2022/07/07 07:01:25;;;;;;;2.38;0.77;;;;;;;;;;5075993;28;20024;-78
2022/07/07 07:03:51;;;;;;;2.50;1.00;;;;;;;;;;5058584;28;20067;-81
2022/07/07 07:06:17;;;;;;;1.98;0.93;;;;;;;;;;5057740;28;20073;-79
2022/07/07 07:08:43;;;;;;;1.65;0.93;;;;;;;;;;5057451;28;20067;-77
2022/07/07 07:11:09;;;;;;;3.10;1.00;;;;;;;;;;5057494;28;20461;-83
2022/07/07 07:13:36;;;;;;;1.35;0.90;;;;;;;;;;5057273;28;20113;-82
2022/07/07 07:16:02;;;;;;;1.52;0.70;;;;;;;;;;5057493;28;20044;-81
2022/07/07 07:18:28;;;;;;;2.75;1.00;;;;;;;;;;5057393;28;20032;-83
2022/07/07 07:20:54;;;;;;;2.20;0.82;;;;;;;;;;5059192;28;20024;-81
2022/07/07 07:23:20;;;;;;;2.35;0.80;;;;;;;;;;5057639;28;20124;-80
2022/07/07 07:25:47;;;;;;;2.88;0.90;;;;;;;;;;5057210;28;20078;-78
2022/07/07 07:28:13;;;;;;;1.13;0.68;;;;;;;;;;5074993;28;20067;-77
2022/07/07 07:30:39;;;;;;;5.00;1.10;;;;;;;;;;5057239;28;20021;-79
2022/07/07 07:33:05;;;;;;;2.25;1.00;;;;;;;;;;5058506;28;20060;-90
2022/07/07 07:35:31;;;;;;;2.95;1.17;;;;;;;;;;5056949;28;20469;-74
2022/07/07 07:37:58;;;;;;;2.20;1.10;;;;;;;;;;5056759;28;20036;-74
2022/07/07 07:40:24;;;;;;;2.63;1.20;;;;;;;;;;5074605;28;20062;-76
2022/07/07 07:42:50;;;;;;;3.97;1.10;;;;;;;;;;5074823;28;20035;-75
2022/07/07 07:45:20;;;;;;;2.47;1.00;;;;;;;;;;5056969;28;20021;-78
2022/07/07 07:47:47;;;;;;;4.35;1.13;;;;;;;;;;5056945;28;20032;-76
2022/07/07 07:50:15;;;;;;;3.47;0.90;;;;;;;;;;5056930;28;20020;-76
2022/07/07 07:52:42;;;;;;;2.45;0.90;;;;;;;;;;5056682;28;20104;-77
2022/07/07 07:55:10;;;;;;;1.63;0.80;;;;;;;;;;5074510;28;20025;-77
2022/07/07 07:57:36;;;;;;;6.25;1.15;;;;;;;;;;5074837;28;20027;-76
2022/07/07 08:00:07;;;;;;;3.95;1.00;;;;;;;;;;5056347;28;20033;-80
2022/07/07 08:02:34;;;;;;;1.50;0.90;;;;;;;;;;5057088;28;20020;-81
2022/07/07 08:05:04;;;;;;;2.60;0.90;;;;;;;;;;5056004;28;20111;-80
2022/07/07 08:07:30;;;;;;;4.10;0.80;;;;;;;;;;5052826;28;20056;-81
2022/07/07 08:09:56;;;;;;;2.20;0.88;;;;;;;;;;5052735;28;20025;-81
2022/07/07 08:12:31;;;;;;;2.25;0.88;;;;;;;;;;5105231;22;20045;-89
2022/07/07 08:14:57;;;;;;;1.48;0.80;;;;;;;;;;5036614;28;20042;-90
2022/07/07 08:17:26;;;;;;;2.55;0.90;;;;;;;;;;5039518;28;20029;-89
2022/07/07 08:27:19;;;;;;;10.13;1.75;;;;;;;;;;5057821;28;20044;-91
2022/07/07 08:29:50;;;;;;;8.82;1.80;;;;;;;;;;5059941;28;20063;-92
2022/07/07 08:32:19;;;;;;;6.03;1.58;;;;;;;;;;5057118;28;20033;-88
2022/07/07 08:38:01;;;;;;;4.90;1.40;;;;;;;;;;5058676;28;20031;-90
2022/07/07 08:40:31;;;;;;;4.18;1.23;;;;;;;;;;5056079;28;20025;-90
2022/07/07 08:43:06;;;;;;;2.33;1.20;;;;;;;;;;5055675;28;20032;-90
2022/07/07 08:45:32;;;;;;;2.33;1.10;;;;;;;;;;5056180;28;20028;-90
2022/07/07 08:47:59;;;;;;;2.58;1.25;;;;;;;;;;5054209;28;20090;-91
2022/07/07 08:50:26;;;;;;;3.65;1.20;;;;;;;;;;5056195;28;20116;-93
2022/07/07 08:52:56;;;;;;;3.20;1.20;;;;;;;;;;5056624;28;20033;-90
2022/07/07 08:55:24;;;;;;;3.50;1.40;;;;;;;;;;5056071;28;20028;-92
2022/07/07 08:57:53;;;;;;;2.50;1.00;;;;;;;;;;5055000;28;20474;-90
2022/07/07 09:06:30;;;;;;;6.38;1.15;;;;;;;;;;5058492;28;20036;-90
2022/07/07 09:09:24;;;;;;;2.90;1.30;;;;;;;;;;5057216;28;20100;-89
2022/07/07 09:12:23;;;;;;;2.70;1.20;;;;;;;;;;5072867;22;20707;-91
2022/07/07 09:17:45;;;;;;;3.15;1.02;;;;;;;;;;4959699;28;20535;-90
2022/07/07 09:20:39;;;;;;;4.20;1.15;;;;;;;;;;5018577;28;20037;-92
2022/07/07 09:23:05;;;;;;;3.40;1.10;;;;;;;;;;5019055;28;20032;-89
2022/07/07 09:25:31;;;;;;;4.47;1.20;;;;;;;;;;5018257;28;20061;-88
2022/07/07 09:28:01;;;;;;;3.85;1.10;;;;;;;;;;5019427;28;20041;-89
2022/07/07 09:30:27;;;;;;;4.10;1.15;;;;;;;;;;5021948;28;20128;-90
2022/07/07 09:32:53;;;;;;;4.22;0.90;;;;;;;;;;5021940;28;20044;-90
2022/07/07 09:38:13;;;;;;;3.38;1.17;;;;;;;;;;5038748;28;20052;-91
2022/07/07 09:40:59;;;;;;;3.15;0.95;;;;;;;;;;5022030;28;20033;-91
2022/07/07 09:43:26;;;;;;;3.33;0.90;;;;;;;;;;5022113;28;20029;-92
2022/07/07 09:46:14;;;;;;;2.72;1.00;;;;;;;;;;5030099;28;20044;-92
2022/07/07 09:48:45;;;;;;;4.05;0.93;;;;;;;;;;5039009;28;20034;-91
2022/07/07 09:51:11;;;;;;;5.25;1.02;;;;;;;;;;5039166;28;20120;-91
2022/07/07 09:53:55;;;;;;;2.47;0.80;;;;;;;;;;5040033;28;20540;-91
2022/07/07 09:56:40;;;;;;;2.50;0.98;;;;;;;;;;5037995;28;20536;-90
2022/07/07 09:59:10;;;;;;;2.65;0.70;;;;;;;;;;5038688;28;20025;-91
2022/07/07 10:01:37;;;;;;;6.40;1.13;;;;;;;;;;5038565;28;20065;-90
2022/07/07 10:04:05;;;;;;;4.47;1.13;;;;;;;;;;5039121;28;20030;-91
2022/07/07 10:06:32;;;;;;;4.95;1.00;;;;;;;;;;5038814;28;20044;-90
2022/07/07 10:09:01;;;;;;;6.80;0.90;;;;;;;;;;5038467;28;20029;-90
2022/07/07 10:11:35;;;;;;;2.53;0.90;;;;;;;;;;5037887;28;20060;-91
2022/07/07 10:14:08;;;;;;;2.53;0.90;;;;;;;;;;5038713;28;20041;-93
2022/07/07 10:16:35;;;;;;;2.55;0.80;;;;;;;;;;5039169;28;20033;-91
2022/07/07 10:19:05;;;;;;;4.68;0.80;;;;;;;;;;5038572;28;20095;-91
2022/07/07 10:21:34;;;;;;;1.83;0.80;;;;;;;;;;5038952;28;20080;-92
2022/07/07 10:24:00;;;;;;;5.53;1.27;;;;;;;;;;5037795;28;20021;-93
2022/07/07 10:34:13;;;;;;;3.08;1.00;;;;;;;;;;5017423;28;20487;-91
2022/07/07 10:37:12;;;;;;;;;;;;;;;;;;;;;
2022/07/07 10:39:42;;;;;;;2.22;1.17;;;;;;;;;;5015309;28;20044;-91
2022/07/07 10:42:20;;;;;;;4.10;1.15;;;;;;;;;;5018478;28;20149;-92
2022/07/07 10:44:51;;;;;;;2.33;1.45;;;;;;;;;;5018403;28;20084;-93
2022/07/07 10:47:33;;;;;;;;;;;;;;;;;;;;;
2022/07/07 10:50:28;;;;;;;1.63;1.08;;;;;;;;;;5027228;28;20078;-90
2022/07/07 10:52:58;;;;;;;4.93;1.42;;;;;;;;;;5017295;28;20038;-92
2022/07/07 10:55:43;;;;;;;2.75;1.33;;;;;;;;;;5017644;28;20036;-91
2022/07/07 10:58:27;;;;;;;4.13;1.42;;;;;;;;;;5017173;28;20072;-91
2022/07/07 11:01:01;;;;;;;5.53;1.50;;;;;;;;;;5017406;28;20026;-90
2022/07/07 11:03:27;;;;;;;5.75;1.70;;;;;;;;;;5016792;28;20065;-92
2022/07/07 11:05:59;;;;;;;3.30;1.50;;;;;;;;;;5001989;28;20057;-91
2022/07/07 11:08:38;;;;;;;4.97;1.50;;;;;;;;;;5001876;28;20072;-92
2022/07/07 11:11:05;;;;;;;3.42;1.42;;;;;;;;;;5005129;28;20049;-93
2022/07/07 11:13:37;;;;;;;5.45;1.55;;;;;;;;;;4998352;28;20026;-90
2022/07/07 11:16:16;;;;;;;5.03;1.10;;;;;;;;;;4979085;28;20046;-92
2022/07/07 11:19:03;;;;;;;2.45;0.80;;;;;;;;;;4981576;28;20053;-90
2022/07/07 11:21:59;;;;;;;2.92;0.77;;;;;;;;;;4984389;28;20073;-92
2022/07/07 11:24:31;;;;;;;1.40;0.68;;;;;;;;;;4980650;28;20043;-91
2022/07/07 11:27:19;;;;;;;1.10;0.57;;;;;;;;;;5023691;23;20058;-95
2022/07/07 11:30:09;;;;;;;2.35;0.70;;;;;;;;;;5015234;28;20030;-92
2022/07/07 11:32:38;;;;;;;2.83;0.80;;;;;;;;;;5021656;28;20018;-92
2022/07/07 11:35:39;;;;;;;;;;;;;;;;;;;;;
2022/07/07 11:38:19;;;;;;;2.42;0.95;;;;;;;;;;4982404;28;20112;-93
2022/07/07 11:40:47;;;;;;;2.67;0.80;;;;;;;;;;4998560;28;20026;-94
2022/07/07 11:43:20;;;;;;;1.40;0.60;;;;;;;;;;4996510;28;20045;-91
2022/07/07 11:45:46;;;;;;;;;;;;;;;;;;4996598;28;20058;-93
2022/07/07 11:48:25;;;;;;;1.50;0.50;;;;;;;;;;4997977;28;19917;-93
2022/07/07 11:50:51;;;;;;;3.50;0.65;;;;;;;;;;4996471;28;20056;-92
2022/07/07 11:53:29;;;;;;;2.00;0.50;;;;;;;;;;4996289;28;20454;-93
2022/07/07 11:55:55;;;;;;;0.73;0.40;;;;;;;;;;4996617;28;20045;-93
2022/07/07 11:58:22;;;;;;;1.48;0.45;;;;;;;;;;4995985;28;20046;-91
2022/07/07 12:00:53;;;;;;;1.98;0.55;;;;;;;;;;4996618;28;20026;-91
2022/07/07 12:03:19;;;;;;;1.30;0.70;;;;;;;;;;4998190;28;20122;-93
2022/07/07 12:05:57;;;;;;;1.33;0.70;;;;;;;;;;4996636;28;20040;-93
2022/07/07 12:08:31;;;;;;;2.70;0.73;;;;;;;;;;4997157;28;20125;-92
2022/07/07 12:10:57;;;;;;;3.58;0.60;;;;;;;;;;4996794;28;20033;-92
2022/07/07 12:13:34;;;;;;;1.88;0.70;;;;;;;;;;4996974;28;20042;-94
2022/07/07 12:16:03;;;;;;;1.30;0.70;;;;;;;;;;4996538;28;20037;-91
2022/07/07 12:18:35;;;;;;;3.35;0.90;;;;;;;;;;4997543;28;20030;-92
2022/07/07 12:21:08;;;;;;;3.78;0.82;;;;;;;;;;4996537;28;20022;-93
2022/07/07 12:23:41;;;;;;;3.25;0.88;;;;;;;;;;4997363;28;20038;-94
2022/07/07 12:26:14;;;;;;;3.67;1.00;;;;;;;;;;4997538;28;20018;-92
2022/07/07 12:28:41;;;;;;;5.75;0.90;;;;;;;;;;4996614;28;20073;-92
2022/07/07 12:31:11;;;;;;;2.58;1.08;;;;;;;;;;4997041;28;20030;-93
2022/07/07 12:36:42;;;;;;;5.15;1.25;;;;;;;;;;4969315;28;20145;-93
2022/07/07 12:39:11;;;;;;;5.30;1.08;;;;;;;;;;4994710;28;20077;-93
2022/07/07 12:41:43;;;;;;;4.35;1.25;;;;;;;;;;4996628;28;20046;-95
2022/07/07 12:44:26;;;;;;;3.00;1.15;;;;;;;;;;4996956;28;20037;-93
2022/07/07 12:47:12;;;;;;;2.17;1.02;;;;;;;;;;4990380;28;20049;-93
2022/07/07 12:49:38;;;;;;;2.95;0.90;;;;;;;;;;4998080;28;20037;-92
2022/07/07 12:52:11;;;;;;;3.17;1.00;;;;;;;;;;4997391;28;20030;-93
2022/07/07 12:54:37;;;;;;;3.55;1.20;;;;;;;;;;4996528;28;20133;-93
2022/07/07 12:57:05;;;;;;;2.63;1.10;;;;;;;;;;4996049;28;20030;-90
2022/07/07 12:59:44;;;;;;;3.08;1.20;;;;;;;;;;4996406;28;20396;-90
2022/07/07 13:02:10;;;;;;;3.33;1.15;;;;;;;;;;4996094;28;20476;-91
2022/07/07 13:04:36;;;;;;;4.82;1.50;;;;;;;;;;5009266;28;20030;-89
2022/07/07 13:07:03;;;;;;;4.30;1.10;;;;;;;;;;4998999;28;20045;-88
2022/07/07 13:09:32;;;;;;;3.25;1.13;;;;;;;;;;4995690;28;20050;-90
2022/07/07 13:11:59;;;;;;;3.92;1.13;;;;;;;;;;4996022;28;20026;-89
2022/07/07 13:14:25;;;;;;;3.22;1.20;;;;;;;;;;4995265;28;20041;-91
2022/07/07 13:17:17;;;;;;;2.83;1.20;;;;;;;;;;4995956;28;20551;-92
2022/07/07 13:19:43;;;;;;;1.83;1.02;;;;;;;;;;4995049;28;20034;-90
2022/07/07 13:22:15;;;;;;;3.67;1.40;;;;;;;;;;4997777;28;20026;-90
2022/07/07 13:24:41;;;;;;;3.53;1.55;;;;;;;;;;5015685;28;20092;-90
2022/07/07 13:27:07;;;;;;;4.28;1.23;;;;;;;;;;5016017;28;20128;-89
2022/07/07 13:32:54;;;;;;;3.63;1.10;;;;;;;;;;5008186;28;20514;-94
2022/07/07 13:38:37;;;;;;;7.60;1.35;;;;;;;;;;5009264;28;20034;-92
2022/07/07 13:50:34;;;;;;;5.45;0.80;;;;;;;;;;4930144;29;20043;-90
2022/07/07 13:55:54;;;;;;;4.15;1.23;;;;;;;;;;5009761;28;20058;-92
2022/07/07 14:33:28;;;;;;;5.38;0.93;;;;;;;;;;5018368;28;20049;-92
2022/07/07 14:35:57;;;;;;;3.10;0.90;;;;;;;;;;5003433;28;20112;-92
2022/07/07 14:38:26;;;;;;;4.43;1.00;;;;;;;;;;5005402;28;20037;-95
2022/07/07 14:44:11;;;;;;;2.95;1.00;;;;;;;;;;4948474;29;20024;-95
2022/07/07 14:46:41;;;;;;;3.90;1.10;;;;;;;;;;4934456;29;20031;-94
2022/07/07 14:49:10;;;;;;;4.45;1.02;;;;;;;;;;5029696;23;20046;-95
2022/07/07 14:51:39;;;;;;;2.85;0.93;;;;;;;;;;5000361;28;20037;-94
2022/07/07 14:54:12;;;;;;;5.90;1.00;;;;;;;;;;5003338;28;20426;-94
2022/07/07 14:56:38;;;;;;;5.13;0.88;;;;;;;;;;5001799;28;20129;-92
2022/07/07 14:59:04;;;;;;;2.00;0.95;;;;;;;;;;4998619;28;20034;-90
2022/07/07 15:01:36;;;;;;;2.28;0.88;;;;;;;;;;5001822;28;20084;-87
2022/07/07 15:04:05;;;;;;;3.38;0.90;;;;;;;;;;5002930;28;20034;-93
2022/07/07 15:06:48;;;;;;;2.60;1.13;;;;;;;;;;4999037;28;20026;-91
2022/07/07 15:09:14;;;;;;;4.00;1.20;;;;;;;;;;4999966;28;20042;-95
2022/07/07 15:11:42;;;;;;;3.97;1.00;;;;;;;;;;5001029;28;20774;-94
2022/07/07 15:14:11;;;;;;;3.47;0.90;;;;;;;;;;5000004;28;20023;-93
2022/07/07 15:16:37;;;;;;;3.22;1.08;;;;;;;;;;5000296;28;20030;-94
2022/07/07 15:19:04;;;;;;;6.00;0.98;;;;;;;;;;5007648;28;20017;-92
2022/07/07 15:21:30;;;;;;;3.72;0.90;;;;;;;;;;5007086;28;20395;-90
2022/07/07 15:23:56;;;;;;;2.63;0.80;;;;;;;;;;5001377;28;20034;-94
2022/07/07 15:26:22;;;;;;;4.18;1.00;;;;;;;;;;5000919;28;20030;-94
2022/07/07 15:28:52;;;;;;;3.28;1.15;;;;;;;;;;4999213;28;20038;-93
2022/07/07 15:31:18;;;;;;;4.57;1.00;;;;;;;;;;5000328;28;20042;-93
2022/07/07 15:33:45;;;;;;;2.97;0.93;;;;;;;;;;5001626;28;20026;-94
2022/07/07 15:36:20;;;;;;;5.18;1.30;;;;;;;;;;5002920;28;20029;-91
2022/07/07 15:39:12;;;;;;;3.05;1.10;;;;;;;;;;5007933;28;20014;-91
2022/07/07 15:41:42;;;;;;;3.27;1.90;;;;;;;;;;5011781;28;20042;-90
2022/07/07 15:46:48;;;;;;;6.53;2.90;;;;;;;;;;5010095;28;20030;-92
2022/07/07 15:49:36;;;;;;;6.95;4.40;;;;;;;;;;4992127;28;20041;-92
2022/07/07 15:55:10;;;;;;;2.67;1.30;;;;;;;;;;5007749;28;20088;-91
2022/07/07 15:57:37;;;;;;;4.35;2.00;;;;;;;;;;4991246;28;20092;-91
2022/07/07 16:00:06;;;;;;;2.67;1.05;;;;;;;;;;4990674;28;20042;-91
2022/07/07 16:02:39;;;;;;;10.88;2.83;;;;;;;;;;4992612;28;20025;-91
2022/07/07 16:05:08;;;;;;;6.97;2.70;;;;;;;;;;4990908;28;20035;-91
2022/07/07 16:07:34;;;;;;;6.97;2.30;;;;;;;;;;4982687;28;20073;-88
2022/07/07 16:10:09;;;;;;;3.65;1.77;;;;;;;;;;4979950;28;20037;-93
2022/07/07 16:12:35;;;;;;;4.50;1.80;;;;;;;;;;4998324;28;20033;-94
2022/07/07 16:15:01;;;;;;;3.45;1.30;;;;;;;;;;4980155;28;20018;-95
2022/07/07 16:17:31;;;;;;;5.88;2.20;;;;;;;;;;4980278;28;20061;-94
2022/07/07 16:19:57;;;;;;;2.65;1.20;;;;;;;;;;4979987;28;20027;-94
2022/07/07 16:22:23;;;;;;;3.35;1.20;;;;;;;;;;4980048;28;20435;-93
2022/07/07 16:24:49;;;;;;;3.08;1.08;;;;;;;;;;4980015;28;20054;-90
2022/07/07 16:27:19;;;;;;;3.33;1.10;;;;;;;;;;4979456;28;20117;-94
2022/07/07 16:29:45;;;;;;;3.63;0.95;;;;;;;;;;4979678;28;20026;-93
2022/07/07 16:32:11;;;;;;;3.67;1.27;;;;;;;;;;4979343;28;20027;-88
2022/07/07 16:34:38;;;;;;;2.67;1.40;;;;;;;;;;4980232;28;20022;-93
2022/07/07 16:37:04;;;;;;;7.43;1.90;;;;;;;;;;4979397;28;20022;-94
2022/07/07 16:39:32;;;;;;;3.15;1.02;;;;;;;;;;4979992;28;20434;-93
2022/07/07 16:41:58;;;;;;;5.07;1.27;;;;;;;;;;4979953;28;20026;-90
2022/07/07 16:44:30;;;;;;;7.05;1.50;;;;;;;;;;4982163;28;20046;-93
2022/07/07 16:46:57;;;;;;;2.65;1.10;;;;;;;;;;4984974;28;20112;-94
2022/07/07 16:49:27;;;;;;;2.80;1.10;;;;;;;;;;5004794;28;20086;-94